createdAt,value
2023-07-28T00:01:13.774Z,96665.63
2023-07-28T00:03:59.257Z,96670.16
2023-07-28T00:06:44.790Z,96677.03
2023-07-28T00:09:30.166Z,96671.34
2023-07-28T00:12:15.588Z,96676.31
2023-07-28T00:15:00.996Z,96674.31
2023-07-28T00:17:46.550Z,96676.41
2023-07-28T00:20:32.105Z,96663.09
2023-07-28T00:23:17.534Z,96667.81
2023-07-28T00:26:02.550Z,96682.25
2023-07-28T00:28:47.541Z,96671.56
2023-07-28T00:31:32.697Z,96666.94
2023-07-28T00:34:17.685Z,96674.81
2023-07-28T00:37:03.083Z,96687.78
2023-07-28T00:39:48.667Z,96682.97
2023-07-28T00:42:35.328Z,96683.13
2023-07-28T00:45:21.986Z,96685.22
2023-07-28T00:48:07.141Z,96691.78
2023-07-28T00:50:52.603Z,96694.78
2023-07-28T00:53:37.692Z,96693.81
2023-07-28T00:56:23.121Z,96703.34
2023-07-28T00:59:08.069Z,96702.69
2023-07-28T01:01:52.990Z,96714.38
2023-07-28T01:04:38.675Z,96725.28
2023-07-28T01:07:24.106Z,96727.84
2023-07-28T01:10:09.716Z,96726.16
2023-07-28T01:12:55.287Z,96732.50
2023-07-28T01:15:40.745Z,96737.91
2023-07-28T01:18:26.245Z,96753.13
2023-07-28T01:21:11.789Z,96761.84
2023-07-28T01:23:57.150Z,96758.91
2023-07-28T01:26:42.312Z,96759.47
2023-07-28T01:29:27.639Z,96754.25
2023-07-28T01:32:16.246Z,96761.38
2023-07-28T01:35:01.772Z,96759.38
2023-07-28T01:37:46.863Z,96758.22
2023-07-28T01:40:32.084Z,96769.63
2023-07-28T01:43:17.574Z,96772.38
2023-07-28T01:46:05.120Z,96780.16
2023-07-28T01:48:50.669Z,96776.19
2023-07-28T01:51:36.051Z,96776.31
2023-07-28T01:54:21.088Z,96774.19
2023-07-28T01:57:06.490Z,96774.50
2023-07-28T01:59:51.919Z,96787.09
2023-07-28T02:02:37.480Z,96785.41
2023-07-28T02:05:22.937Z,96785.03
2023-07-28T02:08:08.027Z,96775.91
2023-07-28T02:10:53.494Z,96773.66
2023-07-28T02:13:38.938Z,96777.41
2023-07-28T02:16:23.945Z,96769.06
2023-07-28T02:19:09.514Z,96756.00
2023-07-28T02:21:55.139Z,96757.75
2023-07-28T02:24:40.525Z,96753.06
2023-07-28T02:27:26.108Z,96749.19
2023-07-28T02:30:11.528Z,96741.72
2023-07-28T02:32:57.134Z,96739.47
2023-07-28T02:35:42.615Z,96749.06
2023-07-28T02:38:27.957Z,96752.16
2023-07-28T02:41:13.435Z,96750.41
2023-07-28T02:43:58.741Z,96767.78
2023-07-28T02:46:44.198Z,96777.88
2023-07-28T02:49:29.491Z,96771.19
2023-07-28T02:52:14.415Z,96763.81
2023-07-28T02:54:59.878Z,96763.31
2023-07-28T02:57:45.305Z,96763.69
2023-07-28T03:00:33.932Z,96772.16
2023-07-28T03:03:19.026Z,96761.38
2023-07-28T03:06:04.521Z,96752.91
2023-07-28T03:08:49.909Z,96756.09
2023-07-28T03:11:34.776Z,96750.56
2023-07-28T03:14:20.387Z,96754.09
2023-07-28T03:17:05.996Z,96759.19
2023-07-28T03:19:51.457Z,96757.41
2023-07-28T03:22:37.232Z,96760.88
2023-07-28T03:25:22.671Z,96763.53
2023-07-28T03:28:07.708Z,96749.75
2023-07-28T03:30:53.168Z,96748.88
2023-07-28T03:33:38.042Z,96750.56
2023-07-28T03:36:23.044Z,96747.25
2023-07-28T03:39:08.473Z,96739.81
2023-07-28T03:41:53.575Z,96736.63
2023-07-28T03:44:39.019Z,96741.72
2023-07-28T03:47:24.514Z,96753.00
2023-07-28T03:50:09.974Z,96753.00
2023-07-28T03:52:55.432Z,96750.00
2023-07-28T03:55:41.070Z,96750.31
2023-07-28T03:58:26.452Z,96745.03
2023-07-28T04:01:12.178Z,96750.78
2023-07-28T04:03:57.311Z,96749.53
2023-07-28T04:06:42.776Z,96761.00
2023-07-28T04:09:28.199Z,96758.50
2023-07-28T04:12:13.137Z,96762.03
2023-07-28T04:14:58.716Z,96756.31
2023-07-28T04:17:44.241Z,96759.13
2023-07-28T04:20:29.634Z,96760.13
2023-07-28T04:23:15.334Z,96753.66
2023-07-28T04:26:00.608Z,96759.59
2023-07-28T04:28:45.650Z,96748.94
2023-07-28T04:31:30.712Z,96749.75
2023-07-28T04:34:16.062Z,96755.94
2023-07-28T04:37:01.604Z,96752.56
2023-07-28T04:39:47.079Z,96761.91
2023-07-28T04:42:32.248Z,96766.91
2023-07-28T04:45:17.760Z,96771.00
2023-07-28T04:48:04.506Z,96762.75
2023-07-28T04:50:49.868Z,96769.72
2023-07-28T04:53:35.254Z,96780.03
2023-07-28T04:56:20.384Z,96782.38
2023-07-28T04:59:05.445Z,96786.31
2023-07-28T05:01:50.944Z,96785.41
2023-07-28T05:04:36.103Z,96776.72
2023-07-28T05:07:21.449Z,96789.47
2023-07-28T05:10:08.092Z,96783.19
2023-07-28T05:12:54.213Z,96792.91
2023-07-28T05:15:40.007Z,96789.47
2023-07-28T05:18:25.609Z,96794.84
2023-07-28T05:21:10.727Z,96787.91
2023-07-28T05:23:55.941Z,96792.72
2023-07-28T05:26:43.237Z,96793.59
2023-07-28T05:29:28.440Z,96785.19
2023-07-28T05:32:14.050Z,96785.69
2023-07-28T05:34:59.614Z,96791.13
2023-07-28T05:37:44.806Z,96798.16
2023-07-28T05:40:29.957Z,96795.13
2023-07-28T05:43:15.415Z,96795.44
2023-07-28T05:46:00.511Z,96789.38
2023-07-28T05:48:46.018Z,96792.75
2023-07-28T05:51:31.556Z,96797.72
2023-07-28T05:54:16.853Z,96802.28
2023-07-28T05:57:02.473Z,96801.16
2023-07-28T05:59:47.397Z,96805.53
2023-07-28T06:02:33.065Z,96811.25
2023-07-28T06:05:19.181Z,96808.31
2023-07-28T06:08:04.469Z,96816.28
2023-07-28T06:10:50.219Z,96823.50
2023-07-28T06:13:35.770Z,96817.94
2023-07-28T06:16:21.299Z,96821.94
2023-07-28T06:19:06.863Z,96819.44
2023-07-28T06:21:52.409Z,96825.94
2023-07-28T06:24:38.178Z,96815.19
2023-07-28T06:27:23.485Z,96822.84
2023-07-28T06:30:08.676Z,96819.75
2023-07-28T06:32:53.969Z,96818.94
2023-07-28T06:35:39.328Z,96810.88
2023-07-28T06:38:24.864Z,96815.59
2023-07-28T06:41:09.772Z,96812.31
2023-07-28T06:43:55.403Z,96826.44
2023-07-28T06:46:40.894Z,96811.03
2023-07-28T06:49:26.412Z,96822.91
2023-07-28T06:52:11.478Z,96830.03
2023-07-28T06:54:56.797Z,96829.78
2023-07-28T06:57:42.388Z,96827.41
2023-07-28T07:00:27.727Z,96830.94
2023-07-28T07:03:13.191Z,96839.41
2023-07-28T07:05:58.713Z,96847.00
2023-07-28T07:08:44.088Z,96846.47
2023-07-28T07:11:29.478Z,96846.44
2023-07-28T07:14:14.949Z,96848.28
2023-07-28T07:17:00.387Z,96839.09
2023-07-28T07:19:48.754Z,96842.38
2023-07-28T07:22:34.282Z,96839.56
2023-07-28T07:25:19.263Z,96856.16
2023-07-28T07:28:04.764Z,96851.22
2023-07-28T07:30:50.214Z,96853.28
2023-07-28T07:33:35.605Z,96850.25
2023-07-28T07:36:20.897Z,96849.72
2023-07-28T07:39:06.761Z,96856.88
2023-07-28T07:41:51.681Z,96854.50
2023-07-28T07:44:37.377Z,96855.19
2023-07-28T07:47:22.634Z,96859.88
2023-07-28T07:50:08.096Z,96856.34
2023-07-28T07:52:53.680Z,96846.16
2023-07-28T07:55:39.181Z,96844.94
2023-07-28T07:58:24.507Z,96853.63
2023-07-28T08:01:09.485Z,96856.44
2023-07-28T08:03:54.829Z,96861.28
2023-07-28T08:06:39.837Z,96863.06
2023-07-28T08:09:24.879Z,96852.47
2023-07-28T08:12:10.399Z,96855.63
2023-07-28T08:14:57.289Z,96864.91
2023-07-28T08:17:42.687Z,96868.75
2023-07-28T08:20:28.467Z,96866.59
2023-07-28T08:23:13.820Z,96862.38
2023-07-28T08:25:59.280Z,96857.50
2023-07-28T08:28:44.336Z,96855.78
2023-07-28T08:31:29.979Z,96851.56
2023-07-28T08:34:15.446Z,96857.06
2023-07-28T08:37:00.982Z,96871.03
2023-07-28T08:39:46.233Z,96873.03
2023-07-28T08:42:31.078Z,96865.34
2023-07-28T08:45:16.453Z,96870.97
2023-07-28T08:48:02.049Z,96868.94
2023-07-28T08:50:47.535Z,96872.41
2023-07-28T08:53:32.573Z,96874.56
2023-07-28T08:56:18.057Z,96868.72
2023-07-28T08:59:03.645Z,96863.00
2023-07-28T09:01:49.106Z,96873.00
2023-07-28T09:04:34.464Z,96868.97
2023-07-28T09:07:20.005Z,96867.28
2023-07-28T09:10:05.311Z,96871.94
2023-07-28T09:12:50.972Z,96875.16
2023-07-28T09:15:36.323Z,96869.16
2023-07-28T09:18:21.957Z,96869.69
2023-07-28T09:21:07.550Z,96867.28
2023-07-28T09:23:52.836Z,96862.34
2023-07-28T09:26:38.525Z,96858.56
2023-07-28T09:29:23.932Z,96851.19
2023-07-28T09:32:09.560Z,96848.78
2023-07-28T09:34:54.903Z,96855.16
2023-07-28T09:37:40.261Z,96870.16
2023-07-28T09:40:25.554Z,96872.19
2023-07-28T09:43:12.060Z,96869.06
2023-07-28T09:45:57.418Z,96867.88
2023-07-28T09:48:42.728Z,96868.28
2023-07-28T09:51:28.218Z,96859.94
2023-07-28T09:54:13.718Z,96861.16
2023-07-28T09:56:58.713Z,96865.69
2023-07-28T09:59:44.095Z,96864.81
2023-07-28T10:02:29.200Z,96855.06
2023-07-28T10:05:14.561Z,96864.13
2023-07-28T10:08:02.909Z,96859.06
2023-07-28T10:10:48.471Z,96862.09
2023-07-28T10:13:33.897Z,96868.13
2023-07-28T10:16:19.542Z,96862.94
2023-07-28T10:19:05.049Z,96851.25
2023-07-28T10:21:50.527Z,96851.91
2023-07-28T10:24:35.913Z,96844.22
2023-07-28T10:27:21.394Z,96840.19
2023-07-28T10:30:06.859Z,96846.06
2023-07-28T10:32:52.564Z,96842.84
2023-07-28T10:35:38.047Z,96846.75
2023-07-28T10:38:26.466Z,96828.53
2023-07-28T10:41:11.872Z,96831.16
2023-07-28T10:43:56.945Z,96833.31
2023-07-28T10:46:42.553Z,96829.34
2023-07-28T10:49:28.066Z,96828.94
2023-07-28T10:52:12.928Z,96832.44
2023-07-28T10:54:58.444Z,96829.91
2023-07-28T10:57:43.879Z,96835.16
2023-07-28T11:00:29.293Z,96829.69
2023-07-28T11:03:15.067Z,96831.13
2023-07-28T11:06:00.157Z,96837.94
2023-07-28T11:08:45.584Z,96831.34
2023-07-28T11:11:30.665Z,96829.81
2023-07-28T11:14:16.759Z,96823.81
2023-07-28T11:17:02.009Z,96826.47
2023-07-28T11:19:47.300Z,96834.13
2023-07-28T11:22:32.673Z,96823.03
2023-07-28T11:25:18.167Z,96824.28
2023-07-28T11:28:03.207Z,96814.28
2023-07-28T11:30:48.851Z,96814.78
2023-07-28T11:33:34.332Z,96819.69
2023-07-28T11:36:22.286Z,96819.09
2023-07-28T11:39:07.697Z,96797.47
2023-07-28T11:41:53.137Z,96802.84
2023-07-28T11:44:38.080Z,96810.91
2023-07-28T11:47:23.468Z,96798.38
2023-07-28T11:50:08.961Z,96792.44
2023-07-28T11:52:54.474Z,96790.53
2023-07-28T11:55:40.044Z,96793.88
2023-07-28T11:58:25.654Z,96792.38
2023-07-28T12:01:11.092Z,96791.88
2023-07-28T12:03:56.763Z,96787.22
2023-07-28T12:06:55.761Z,96788.84
2023-07-28T12:09:42.347Z,96787.81
2023-07-28T12:12:27.386Z,96794.41
2023-07-28T12:20:49.211Z,96799.13
2023-07-28T12:26:22.665Z,96793.88
2023-07-28T12:29:11.525Z,96791.94
2023-07-28T12:32:02.789Z,96789.97
2023-07-28T12:34:51.835Z,96783.75
2023-07-28T12:48:52.710Z,96786.31
2023-07-28T12:51:38.193Z,96790.56
2023-07-28T12:54:23.149Z,96782.13
2023-07-28T13:02:44.845Z,96789.75
2023-07-28T13:05:30.134Z,96790.06
2023-07-28T13:08:15.600Z,96786.72
2023-07-28T13:13:48.886Z,96819.38
2023-07-28T13:16:34.664Z,96814.28
2023-07-28T13:19:20.089Z,96791.47
2023-07-28T13:22:05.620Z,96780.41
2023-07-28T13:24:51.044Z,96778.81
2023-07-28T13:27:36.159Z,96780.09
2023-07-28T13:30:21.781Z,96769.69
2023-07-28T13:33:07.294Z,96769.66
2023-07-28T13:35:52.706Z,96780.19
2023-07-28T13:38:38.052Z,96775.84
2023-07-28T13:41:23.603Z,96776.88
2023-07-28T13:44:15.057Z,96769.16
2023-07-28T13:47:00.846Z,96774.50
2023-07-28T13:52:34.313Z,96768.94
2023-07-28T13:55:40.610Z,96758.09
2023-07-28T13:58:25.467Z,96747.66
2023-07-28T14:01:11.147Z,96747.50
2023-07-28T14:03:56.628Z,96754.25
2023-07-28T14:06:41.928Z,96750.28
2023-07-28T14:09:27.516Z,96748.91
2023-07-28T14:12:12.958Z,96747.06
2023-07-28T14:14:58.454Z,96754.94
2023-07-28T14:17:44.011Z,96754.47
2023-07-28T14:20:29.385Z,96750.28
2023-07-28T14:23:14.764Z,96742.75
2023-07-28T14:26:00.365Z,96736.06
2023-07-28T14:28:45.880Z,96741.09
2023-07-28T14:31:35.028Z,96742.94
2023-07-28T14:34:20.384Z,96737.47
2023-07-28T14:37:05.302Z,96732.41
2023-07-28T14:39:50.692Z,96732.88
2023-07-28T14:42:36.131Z,96736.88
2023-07-28T14:45:21.140Z,96739.09
2023-07-28T14:48:06.296Z,96731.25
2023-07-28T14:50:51.665Z,96738.78
2023-07-28T14:53:37.062Z,96743.06
2023-07-28T14:56:22.551Z,96734.53
2023-07-28T14:59:08.011Z,96747.53
2023-07-28T15:01:52.922Z,96747.41
2023-07-28T15:04:38.058Z,96742.50
2023-07-28T15:07:23.330Z,96746.16
2023-07-28T15:10:09.071Z,96741.94
2023-07-28T15:12:54.580Z,96748.97
2023-07-28T15:15:39.957Z,96749.44
2023-07-28T15:18:25.454Z,96750.47
2023-07-28T15:21:10.885Z,96755.81
2023-07-28T15:23:56.528Z,96753.31
2023-07-28T15:26:41.791Z,96750.78
2023-07-28T15:29:27.361Z,96741.69
2023-07-28T15:32:12.820Z,96752.53
2023-07-28T15:34:58.206Z,96746.50
2023-07-28T15:37:43.689Z,96748.75
2023-07-28T15:40:28.975Z,96739.81
2023-07-28T15:43:14.368Z,96745.84
2023-07-28T15:46:00.128Z,96738.63
2023-07-28T15:48:45.562Z,96731.84
2023-07-28T15:51:31.178Z,96735.72
2023-07-28T15:54:16.508Z,96740.56
2023-07-28T15:57:02.065Z,96732.47
2023-07-28T15:59:47.016Z,96737.81
2023-07-28T16:02:32.338Z,96742.97
2023-07-28T16:05:17.807Z,96744.28
2023-07-28T16:08:03.253Z,96744.56
2023-07-28T16:10:48.878Z,96745.72
2023-07-28T16:13:34.323Z,96752.88
2023-07-28T16:16:19.829Z,96757.31
2023-07-28T16:19:05.462Z,96745.41
2023-07-28T16:21:50.757Z,96750.88
2023-07-28T16:24:36.389Z,96745.75
2023-07-28T16:27:21.949Z,96747.59
2023-07-28T16:30:07.454Z,96745.56
2023-07-28T16:32:52.890Z,96753.78
2023-07-28T16:35:38.512Z,96749.09
2023-07-28T16:38:23.891Z,96747.66
2023-07-28T16:41:09.301Z,96743.78
2023-07-28T16:43:54.750Z,96747.34
2023-07-28T16:46:40.281Z,96749.91
2023-07-28T16:49:25.782Z,96751.94
2023-07-28T16:52:11.436Z,96746.63
2023-07-28T16:54:56.869Z,96755.59
2023-07-28T16:57:42.354Z,96759.47
2023-07-28T17:00:27.768Z,96762.63
2023-07-28T17:03:13.171Z,96765.72
2023-07-28T17:05:58.554Z,96770.53
2023-07-28T17:08:44.425Z,96779.75
2023-07-28T17:11:30.996Z,96793.19
2023-07-28T17:14:17.605Z,96785.44
2023-07-28T17:17:02.675Z,96796.97
2023-07-28T17:19:48.059Z,96792.31
2023-07-28T17:22:33.789Z,96790.56
2023-07-28T17:25:19.665Z,96794.50
2023-07-28T17:28:05.466Z,96791.66
2023-07-28T17:30:50.757Z,96784.28
2023-07-28T17:33:36.260Z,96796.09
2023-07-28T17:36:21.675Z,96782.81
2023-07-28T17:39:07.647Z,96786.38
2023-07-28T17:41:52.833Z,96783.13
2023-07-28T17:44:38.211Z,96785.75
2023-07-28T17:47:23.775Z,96779.34
2023-07-28T17:50:09.165Z,96776.16
2023-07-28T17:52:54.902Z,96782.13
2023-07-28T17:55:40.192Z,96774.53
2023-07-28T17:58:25.623Z,96773.63
2023-07-28T18:01:10.558Z,96768.06
2023-07-28T18:03:55.897Z,96768.06
2023-07-28T18:06:41.333Z,96767.97
2023-07-28T18:09:26.293Z,96756.25
2023-07-28T18:12:11.932Z,96766.97
2023-07-28T18:14:57.379Z,96772.16
2023-07-28T18:17:42.825Z,96771.00
2023-07-28T18:20:28.291Z,96770.81
2023-07-28T18:23:13.626Z,96773.03
2023-07-28T18:25:59.103Z,96780.44
2023-07-28T18:28:44.284Z,96774.06
2023-07-28T18:31:29.638Z,96781.16
2023-07-28T18:34:14.590Z,96776.69
2023-07-28T18:37:00.057Z,96770.09
2023-07-28T18:39:45.505Z,96770.53
2023-07-28T18:42:30.929Z,96781.00
2023-07-28T18:45:16.205Z,96776.13
2023-07-28T18:48:01.768Z,96780.19
2023-07-28T18:50:47.049Z,96776.44
2023-07-28T18:53:32.524Z,96772.09
2023-07-28T18:56:17.794Z,96774.84
2023-07-28T18:59:03.236Z,96776.25
2023-07-28T19:01:48.711Z,96777.63
2023-07-28T19:04:34.158Z,96784.22
2023-07-28T19:07:19.884Z,96784.22
2023-07-28T19:10:05.502Z,96785.66
2023-07-28T19:12:51.185Z,96783.19
2023-07-28T19:15:46.575Z,96786.44
2023-07-28T19:18:32.762Z,96786.94
2023-07-28T19:21:18.181Z,96790.81
2023-07-28T19:24:03.713Z,96794.34
2023-07-28T19:26:48.788Z,96800.03
2023-07-28T19:29:34.423Z,96793.13
2023-07-28T19:32:19.731Z,96801.97
2023-07-28T19:35:05.073Z,96802.34
2023-07-28T19:37:50.730Z,96804.56
2023-07-28T19:40:36.187Z,96812.28
2023-07-28T19:43:21.533Z,96809.72
2023-07-28T19:46:07.203Z,96798.41
2023-07-28T19:48:52.665Z,96815.81
2023-07-28T19:51:38.152Z,96804.38
2023-07-28T19:54:23.689Z,96805.06
2023-07-28T19:57:09.166Z,96801.63
2023-07-28T19:59:53.943Z,96812.66
2023-07-28T20:02:39.409Z,96807.63
2023-07-28T20:05:24.743Z,96809.03
2023-07-28T20:08:10.259Z,96811.59
2023-07-28T20:10:55.673Z,96805.91
2023-07-28T20:13:41.178Z,96801.06
2023-07-28T20:16:26.560Z,96808.16
2023-07-28T20:19:12.107Z,96812.41
2023-07-28T20:21:57.095Z,96821.41
2023-07-28T20:24:42.239Z,96823.03
2023-07-28T20:27:27.489Z,96819.78
2023-07-28T20:30:12.487Z,96827.09
2023-07-28T20:32:58.061Z,96827.50
2023-07-28T20:35:43.284Z,96823.22
2023-07-28T20:38:28.245Z,96825.25
2023-07-28T20:41:13.140Z,96829.00
2023-07-28T20:43:58.029Z,96832.31
2023-07-28T20:46:43.072Z,96830.41
2023-07-28T20:49:28.566Z,96831.03
2023-07-28T20:52:14.185Z,96832.19
2023-07-28T20:54:59.729Z,96837.13
2023-07-28T20:57:45.312Z,96838.47
2023-07-28T21:00:32.501Z,96837.38
2023-07-28T21:03:18.482Z,96840.63
2023-07-28T21:06:03.894Z,96841.03
2023-07-28T21:08:48.862Z,96844.00
2023-07-28T21:11:34.366Z,96851.97
2023-07-28T21:14:19.830Z,96852.47
2023-07-28T21:17:05.288Z,96849.63
2023-07-28T21:19:50.776Z,96854.19
2023-07-28T21:22:36.103Z,96851.16
2023-07-28T21:25:21.584Z,96848.94
2023-07-28T21:28:06.997Z,96849.84
2023-07-28T21:30:52.429Z,96857.34
2023-07-28T21:33:37.886Z,96851.34
2023-07-28T21:36:22.894Z,96842.44
2023-07-28T21:39:08.398Z,96840.41
2023-07-28T21:41:54.223Z,96842.75
2023-07-28T21:44:39.673Z,96841.94
2023-07-28T21:47:24.715Z,96845.97
2023-07-28T21:50:10.210Z,96841.22
2023-07-28T21:52:55.893Z,96838.75
2023-07-28T21:55:41.409Z,96835.84
2023-07-28T21:58:26.823Z,96830.72
2023-07-28T22:01:11.802Z,96835.97
2023-07-28T22:03:57.428Z,96824.13
2023-07-28T22:06:42.981Z,96828.66
2023-07-28T22:09:28.232Z,96819.97
2023-07-28T22:12:13.155Z,96813.47
2023-07-28T22:14:58.041Z,96810.47
2023-07-28T22:17:43.565Z,96816.09
2023-07-28T22:20:29.978Z,96817.31
2023-07-28T22:23:15.917Z,96810.25
2023-07-28T22:26:01.261Z,96822.97
2023-07-28T22:28:46.621Z,96831.84
2023-07-28T22:31:31.673Z,96837.66
2023-07-28T22:34:17.254Z,96841.09
2023-07-28T22:37:03.179Z,96841.69
2023-07-28T22:39:48.718Z,96849.69
2023-07-28T22:42:34.291Z,96850.75
2023-07-28T22:45:19.185Z,96856.34
2023-07-28T22:48:04.650Z,96862.53
2023-07-28T22:50:50.064Z,96848.53
2023-07-28T22:53:36.772Z,96854.81
2023-07-28T22:56:22.195Z,96855.97
2023-07-28T22:59:07.340Z,96853.69
2023-07-28T23:01:52.961Z,96856.19
2023-07-28T23:04:38.524Z,96853.25
2023-07-28T23:07:24.160Z,96851.13
2023-07-28T23:10:09.582Z,96853.53
2023-07-28T23:12:54.937Z,96847.25
2023-07-28T23:15:40.299Z,96844.22
2023-07-28T23:18:25.857Z,96831.78
2023-07-28T23:21:11.469Z,96838.56
2023-07-28T23:23:56.529Z,96826.47
2023-07-28T23:26:42.037Z,96819.34
2023-07-28T23:29:27.550Z,96815.72
2023-07-28T23:32:13.056Z,96819.97
2023-07-28T23:34:58.674Z,96802.44
2023-07-28T23:37:43.920Z,96808.72
2023-07-28T23:40:29.151Z,96805.91
2023-07-28T23:43:14.517Z,96796.31
2023-07-28T23:46:00.095Z,96841.69
2023-07-28T23:48:45.461Z,96900.09
2023-07-28T23:51:30.470Z,96891.31
2023-07-28T23:54:19.126Z,96899.63
2023-07-28T23:57:04.341Z,96879.44
2023-07-28T23:59:49.746Z,96896.84
